Time;durP1;ratioP1;P1;durP2;ratioP2;P2;SDS_P1;SDS_P2;PMS_P1;PMS_P2;Temp;Humidity;BMP_temperature;BMP_pressure;BME280_temperature;BME280_humidity;BME280_pressure;Samples;Min_cycle;Max_cycle;Signal;HPM_P1;HPM_P2
2021/03/21 00:01:07;;;;;;;11.73;5.65;;;;;;;1.84;69.15;101624.50;5034206;28;20063;-72
2021/03/21 00:03:32;;;;;;;10.38;5.75;;;;;;;1.87;68.90;101623.31;5039922;28;20025;-70
2021/03/21 00:05:58;;;;;;;8.00;4.25;;;;;;;1.96;68.96;101612.53;5041907;28;20030;-70
2021/03/21 00:08:29;;;;;;;9.43;4.60;;;;;;;1.91;69.73;101606.94;5034944;28;20056;-71
2021/03/21 00:10:57;;;;;;;8.77;5.70;;;;;;;1.70;71.85;101617.25;5037567;28;20044;-71
2021/03/21 00:13:24;;;;;;;9.27;4.85;;;;;;;1.65;72.84;101609.03;5035306;28;20025;-71
2021/03/21 00:15:52;;;;;;;9.95;5.82;;;;;;;1.58;73.64;101608.03;5035078;28;20084;-71
2021/03/21 00:18:19;;;;;;;11.02;6.28;;;;;;;1.75;72.39;101596.44;5036595;28;20016;-71
2021/03/21 00:20:45;;;;;;;11.68;6.20;;;;;;;1.67;73.51;101592.00;5036813;28;20040;-71
2021/03/21 00:23:11;;;;;;;11.18;5.57;;;;;;;1.72;73.36;101576.47;5034507;28;20021;-71
2021/03/21 00:25:38;;;;;;;11.82;6.18;;;;;;;1.71;73.59;101574.81;5040343;28;20029;-71
2021/03/21 00:28:06;;;;;;;11.75;5.93;;;;;;;1.87;72.62;101568.66;5039622;28;20029;-71
2021/03/21 00:30:35;;;;;;;10.68;5.72;;;;;;;1.87;73.30;101573.13;5031927;28;20082;-71
2021/03/21 00:33:00;;;;;;;9.13;5.93;;;;;;;1.78;74.61;101567.03;5040561;28;20029;-71
2021/03/21 00:35:26;;;;;;;10.65;6.53;;;;;;;1.73;74.94;101554.31;5030288;28;20510;-71
2021/03/21 00:37:56;;;;;;;11.63;6.78;;;;;;;1.80;75.38;101549.22;5037652;28;20036;-71
2021/03/21 00:40:23;;;;;;;11.32;6.60;;;;;;;1.81;75.29;101548.22;5037411;28;20058;-71
2021/03/21 00:42:49;;;;;;;11.93;6.47;;;;;;;1.79;75.91;101537.78;5034516;28;20029;-71
2021/03/21 00:45:17;;;;;;;11.68;7.00;;;;;;;1.69;77.14;101526.59;5032153;28;20109;-71
2021/03/21 00:47:44;;;;;;;13.63;6.63;;;;;;;1.81;76.51;101519.16;5034508;28;20037;-71
2021/03/21 00:50:14;;;;;;;12.48;6.13;;;;;;;1.87;76.02;101513.16;5034781;28;20032;-71
2021/03/21 00:52:40;;;;;;;15.35;9.35;;;;;;;1.64;78.92;101512.28;5052244;28;20399;-71
2021/03/21 00:55:06;;;;;;;11.82;6.97;;;;;;;1.78;77.09;101508.88;5032531;28;20033;-71
2021/03/21 00:57:32;;;;;;;12.68;7.18;;;;;;;1.82;77.18;101504.94;5033408;28;20032;-71
2021/03/21 00:59:57;;;;;;;13.77;7.53;;;;;;;1.89;76.91;101494.50;5038661;28;20029;-71
2021/03/21 01:02:23;;;;;;;16.33;7.85;;;;;;;1.76;78.43;101497.69;5037078;28;20081;-72
2021/03/21 01:04:49;;;;;;;11.90;6.55;;;;;;;1.71;79.45;101487.63;5042172;28;20021;-71
2021/03/21 01:07:15;;;;;;;13.73;8.30;;;;;;;1.69;79.67;101480.88;5035938;28;20020;-71
2021/03/21 01:09:41;;;;;;;14.73;8.02;;;;;;;1.69;79.93;101472.94;5032829;28;20025;-71
2021/03/21 01:12:08;;;;;;;15.27;7.18;;;;;;;1.81;79.23;101468.94;5040533;28;20036;-72
2021/03/21 01:14:33;;;;;;;15.52;8.55;;;;;;;1.78;79.31;101463.97;5030953;28;20496;-71
2021/03/21 01:16:59;;;;;;;19.52;7.97;;;;;;;1.79;79.89;101457.69;5034949;28;20032;-71
2021/03/21 01:19:24;;;;;;;14.18;8.57;;;;;;;1.75;80.07;101454.56;5030595;28;20031;-71
2021/03/21 01:21:50;;;;;;;15.98;8.55;;;;;;;1.59;82.09;101451.19;5034537;28;20029;-71
2021/03/21 01:24:22;;;;;;;12.02;7.50;;;;;;;1.71;81.35;101444.53;5033244;28;20290;-71
2021/03/21 01:26:48;;;;;;;18.75;8.85;;;;;;;1.73;81.14;101445.19;5036258;28;20476;-71
2021/03/21 01:29:14;;;;;;;14.55;8.13;;;;;;;1.78;81.16;101425.16;5036602;28;20060;-71
2021/03/21 01:31:40;;;;;;;14.68;8.45;;;;;;;1.76;81.85;101431.63;5034756;28;20060;-71
2021/03/21 01:34:05;;;;;;;13.95;8.38;;;;;;;1.78;81.58;101424.34;5035539;28;20029;-71
2021/03/21 01:36:34;;;;;;;15.65;8.73;;;;;;;1.79;81.47;101426.00;5049825;28;20020;-71
2021/03/21 01:39:05;;;;;;;17.40;10.60;;;;;;;1.64;83.17;101415.34;5037290;28;20033;-71
2021/03/21 01:41:34;;;;;;;16.70;8.20;;;;;;;1.76;82.17;101406.03;5037597;28;20021;-71
2021/03/21 01:44:00;;;;;;;21.10;8.65;;;;;;;1.83;82.17;101406.16;5041343;28;20031;-71
2021/03/21 01:46:34;;;;;;;20.15;9.30;;;;;;;1.71;83.63;101402.28;5040274;28;22004;-70
2021/03/21 01:49:04;;;;;;;14.38;8.80;;;;;;;1.81;82.72;101397.59;5036777;28;20060;-70
2021/03/21 01:51:31;;;;;;;17.02;9.57;;;;;;;1.86;82.61;101383.84;5039381;28;20028;-71
2021/03/21 01:54:02;;;;;;;17.50;8.50;;;;;;;1.90;82.44;101383.31;5038358;28;20033;-71
2021/03/21 01:56:30;;;;;;;17.25;9.20;;;;;;;1.92;82.82;101369.94;5039063;28;20120;-71
2021/03/21 01:59:03;;;;;;;18.35;10.75;;;;;;;1.90;83.07;101358.72;5040619;28;20144;-70
2021/03/21 02:01:29;;;;;;;20.55;10.10;;;;;;;1.87;83.54;101361.72;5037776;28;20082;-71
2021/03/21 02:03:55;;;;;;;18.08;8.75;;;;;;;2.00;82.61;101356.69;5038737;28;20097;-70
2021/03/21 02:06:40;;;;;;;17.58;9.35;;;;;;;1.94;83.95;101352.06;5041077;28;20104;-70
2021/03/21 02:09:20;;;;;;;19.73;9.32;;;;;;;1.94;84.17;101347.63;5041571;28;20379;-71
2021/03/21 02:11:48;;;;;;;19.42;10.02;;;;;;;1.86;85.70;101328.38;5043223;28;20036;-71
2021/03/21 02:14:36;;;;;;;16.90;9.65;;;;;;;1.81;86.23;101335.00;5039907;28;20040;-71
2021/03/21 02:17:31;;;;;;;18.63;8.75;;;;;;;1.89;85.49;101323.53;5037338;28;20025;-71
2021/03/21 02:20:25;;;;;;;16.38;9.57;;;;;;;1.96;84.63;101323.66;5045980;28;20143;-71
2021/03/21 02:23:06;;;;;;;23.55;12.02;;;;;;;1.85;86.52;101319.63;5031875;28;20038;-71
2021/03/21 02:26:02;;;;;;;18.67;11.52;;;;;;;1.77;87.87;101319.66;5043939;28;20032;-71
2021/03/21 02:28:38;;;;;;;20.88;11.88;;;;;;;1.79;87.74;101309.72;5039904;28;20033;-71
2021/03/21 02:31:13;;;;;;;22.35;11.93;;;;;;;1.86;88.09;101315.97;5040323;28;20029;-71
2021/03/21 02:33:51;;;;;;;21.38;10.70;;;;;;;1.94;86.67;101313.25;5041604;28;20036;-71
2021/03/21 02:36:42;;;;;;;21.65;11.30;;;;;;;1.81;89.40;101299.84;5039388;28;20039;-71
2021/03/21 02:39:16;;;;;;;19.25;11.65;;;;;;;1.84;89.64;101302.13;5040053;28;20052;-71
2021/03/21 02:41:45;;;;;;;20.63;12.80;;;;;;;1.87;89.57;101291.19;5055100;28;20353;-71
2021/03/21 02:44:24;;;;;;;22.42;11.88;;;;;;;1.81;90.31;101286.63;5038882;28;20091;-71
2021/03/21 02:46:56;;;;;;;22.25;11.30;;;;;;;1.93;90.32;101282.53;5035492;28;20078;-71
2021/03/21 02:49:30;;;;;;;22.17;11.70;;;;;;;1.98;89.45;101276.75;5037920;28;20049;-71
2021/03/21 02:52:01;;;;;;;24.70;11.65;;;;;;;1.88;90.31;101279.63;5038957;28;20033;-70
2021/03/21 02:54:32;;;;;;;24.38;13.30;;;;;;;1.84;91.69;101275.69;5042907;28;20039;-70
2021/03/21 02:57:09;;;;;;;20.70;10.88;;;;;;;1.92;91.54;101264.22;5035034;28;20036;-70
2021/03/21 02:59:40;;;;;;;24.17;11.25;;;;;;;2.00;90.42;101265.00;5040322;28;20033;-70
2021/03/21 03:02:11;;;;;;;23.23;12.68;;;;;;;1.99;91.38;101263.34;5035911;28;20384;-71
2021/03/21 03:04:42;;;;;;;20.02;11.43;;;;;;;1.99;91.57;101255.41;5036740;28;20036;-70
2021/03/21 03:07:26;;;;;;;18.25;10.48;;;;;;;1.98;91.37;101253.78;5035209;28;20033;-72
2021/03/21 03:10:00;;;;;;;23.40;12.32;;;;;;;1.94;92.14;101249.84;5040803;28;20041;-71
2021/03/21 03:12:35;;;;;;;21.35;11.25;;;;;;;2.06;91.32;101232.53;5037925;28;20526;-71
2021/03/21 03:15:08;;;;;;;18.67;11.23;;;;;;;2.05;91.36;101235.38;5040777;28;20041;-71
2021/03/21 03:17:41;;;;;;;26.73;12.40;;;;;;;2.05;92.01;101230.09;5039131;28;20037;-72
2021/03/21 03:20:57;;;;;;;21.33;11.93;;;;;;;2.15;91.11;101235.09;5041661;28;20466;-71
2021/03/21 03:23:38;;;;;;;18.33;10.20;;;;;;;2.11;91.54;101224.88;5041573;28;20045;-70
2021/03/21 03:26:16;;;;;;;20.50;10.77;;;;;;;2.21;91.49;101229.09;5038550;28;20028;-71
2021/03/21 03:28:47;;;;;;;22.02;12.50;;;;;;;2.13;92.71;101220.25;5038158;28;20024;-71
2021/03/21 03:31:34;;;;;;;19.95;11.77;;;;;;;2.11;92.43;101211.66;5042304;28;20118;-72
2021/03/21 03:33:59;;;;;;;22.83;11.73;;;;;;;2.14;92.80;101210.47;5042584;28;20557;-71
2021/03/21 03:36:25;;;;;;;20.40;10.18;;;;;;;2.20;92.51;101203.66;5041060;28;20191;-70
2021/03/21 03:38:51;;;;;;;18.85;11.07;;;;;;;2.23;92.28;101193.53;5043355;28;20402;-70
2021/03/21 03:41:26;;;;;;;21.08;10.60;;;;;;;2.20;92.86;101193.91;5039191;28;21023;-70
2021/03/21 03:44:02;;;;;;;21.25;11.60;;;;;;;2.13;92.76;101185.88;5041020;28;20033;-71
2021/03/21 03:46:44;;;;;;;20.35;9.88;;;;;;;2.25;92.46;101188.06;5041228;28;21063;-71
2021/03/21 03:49:09;;;;;;;19.15;10.05;;;;;;;2.35;91.93;101178.06;5036987;28;20026;-71
2021/03/21 03:51:51;;;;;;;17.92;10.57;;;;;;;2.26;92.56;101182.59;5039059;28;20064;-70
2021/03/21 03:54:33;;;;;;;16.73;9.57;;;;;;;2.25;93.29;101180.13;5039057;28;20068;-71
2021/03/21 03:57:20;;;;;;;17.00;9.45;;;;;;;2.31;92.79;101172.28;5033901;28;20387;-71
2021/03/21 03:59:48;;;;;;;16.92;8.90;;;;;;;2.38;92.29;101165.28;5038137;28;20028;-71
2021/03/21 04:02:20;;;;;;;16.83;8.73;;;;;;;2.34;93.07;101161.38;5043660;28;20036;-71
2021/03/21 04:04:45;;;;;;;18.45;9.00;;;;;;;2.36;92.90;101155.91;5042829;28;20724;-71
2021/03/21 04:07:17;;;;;;;16.67;8.40;;;;;;;2.43;92.20;101148.84;5033120;28;20079;-72
2021/03/21 04:09:48;;;;;;;15.60;8.77;;;;;;;2.36;93.24;101143.50;5035112;28;20040;-71
2021/03/21 04:12:19;;;;;;;15.60;7.85;;;;;;;2.45;92.34;101140.72;5036594;28;20546;-72
2021/03/21 04:14:45;;;;;;;16.70;9.02;;;;;;;2.38;93.16;101133.53;5051717;28;20059;-71
2021/03/21 04:17:17;;;;;;;18.90;10.13;;;;;;;2.29;94.16;101129.34;5040782;28;20029;-72
2021/03/21 04:20:00;;;;;;;13.07;7.35;;;;;;;2.40;93.75;101130.72;5042813;28;20039;-71
2021/03/21 04:22:31;;;;;;;16.45;8.40;;;;;;;2.48;93.26;101116.56;5041746;28;20033;-72
2021/03/21 04:25:14;;;;;;;14.68;7.70;;;;;;;2.52;92.68;101120.50;5036811;28;20033;-71
2021/03/21 04:27:45;;;;;;;15.13;7.63;;;;;;;2.54;92.86;101111.34;5039037;28;20052;-71
2021/03/21 04:30:11;;;;;;;16.27;8.00;;;;;;;2.40;93.92;101117.50;5040553;28;20033;-71
2021/03/21 04:32:48;;;;;;;13.27;7.13;;;;;;;2.49;93.67;101097.03;5040312;28;20033;-71
2021/03/21 04:35:17;;;;;;;13.48;8.55;;;;;;;2.43;93.81;101102.06;5036442;28;20025;-72
2021/03/21 04:37:48;;;;;;;13.80;6.68;;;;;;;2.54;94.08;101095.47;5039401;28;20515;-71
2021/03/21 04:40:15;;;;;;;11.10;6.60;;;;;;;2.62;93.03;101092.72;5038748;28;20040;-71
2021/03/21 04:42:51;;;;;;;17.13;9.13;;;;;;;2.49;94.23;101089.91;5036829;28;20037;-72
2021/03/21 04:45:21;;;;;;;12.43;7.32;;;;;;;2.60;93.70;101089.44;5038468;28;20442;-71
2021/03/21 04:47:58;;;;;;;11.65;6.53;;;;;;;2.46;94.58;101090.28;5038565;28;20476;-71
2021/03/21 04:50:23;;;;;;;14.70;6.30;;;;;;;2.64;94.03;101084.59;5033313;28;20036;-72
2021/03/21 04:53:04;;;;;;;11.68;6.25;;;;;;;2.59;94.26;101076.41;5042889;28;20029;-72
2021/03/21 04:55:40;;;;;;;10.63;4.95;;;;;;;2.72;93.42;101080.00;5038693;28;20021;-71
2021/03/21 04:58:25;;;;;;;10.55;4.90;;;;;;;2.70;93.84;101066.16;5038438;28;20048;-72
2021/03/21 05:00:51;;;;;;;8.60;5.45;;;;;;;2.73;93.38;101057.00;5035386;28;20029;-72
2021/03/21 05:03:34;;;;;;;9.38;5.15;;;;;;;2.69;93.44;101058.38;5035277;28;20094;-71
2021/03/21 05:06:03;;;;;;;8.48;4.82;;;;;;;2.81;93.15;101064.00;5034591;28;20384;-72
2021/03/21 05:08:35;;;;;;;7.93;4.95;;;;;;;2.79;93.43;101063.38;5037529;28;20021;-71
2021/03/21 05:11:04;;;;;;;8.23;4.22;;;;;;;2.77;93.39;101050.31;5041082;28;20031;-72
2021/03/21 05:13:37;;;;;;;8.98;4.30;;;;;;;2.74;94.25;101056.00;5042717;28;20039;-72
2021/03/21 05:16:18;;;;;;;9.95;4.38;;;;;;;2.81;93.86;101051.56;5034833;28;20668;-72
2021/03/21 05:19:02;;;;;;;7.82;3.85;;;;;;;2.85;93.87;101052.00;5041842;28;20044;-72
2021/03/21 05:21:37;;;;;;;6.95;3.88;;;;;;;2.92;93.37;101043.13;5035380;28;20596;-72
2021/03/21 05:24:33;;;;;;;5.53;3.75;;;;;;;2.85;94.04;101044.06;5037884;28;20108;-71
2021/03/21 05:27:16;;;;;;;7.18;3.63;;;;;;;2.86;94.10;101043.06;5036052;28;20069;-71
2021/03/21 05:29:48;;;;;;;8.00;3.83;;;;;;;2.92;93.94;101042.31;5032565;28;20080;-71
2021/03/21 05:32:17;;;;;;;5.05;2.97;;;;;;;3.02;93.54;101048.91;5034868;28;20041;-72
2021/03/21 05:34:43;;;;;;;5.40;2.92;;;;;;;3.03;93.69;101039.13;5038666;28;20929;-71
2021/03/21 05:37:18;;;;;;;6.25;3.05;;;;;;;3.11;93.70;101036.38;5033204;28;20083;-71
2021/03/21 05:40:02;;;;;;;;;;;;;;;3.13;93.59;101025.59;5039815;28;20629;-71
2021/03/21 05:42:49;;;;;;;5.07;2.95;;;;;;;3.26;93.49;101034.44;5034740;28;20282;-72
2021/03/21 05:45:23;;;;;;;6.70;3.00;;;;;;;3.24;93.54;101028.53;5036873;28;20025;-71
2021/03/21 05:48:14;;;;;;;6.18;3.25;;;;;;;3.26;93.65;101023.03;5053394;28;20044;-71
2021/03/21 05:51:05;;;;;;;6.47;2.65;;;;;;;3.31;93.62;101023.28;5037589;28;20033;-71
2021/03/21 05:54:06;;;;;;;5.13;2.38;;;;;;;3.40;93.11;101026.56;5036042;28;20113;-71
2021/03/21 05:56:45;;;;;;;6.93;3.35;;;;;;;3.46;93.57;101015.22;5038100;28;20030;-71
2021/03/21 05:59:35;;;;;;;3.67;2.00;;;;;;;3.58;92.83;101017.09;5050288;28;20613;-71
2021/03/21 06:02:25;;;;;;;3.67;2.13;;;;;;;3.61;92.60;101015.94;5035253;28;20502;-71
2021/03/21 06:05:15;;;;;;;3.67;2.40;;;;;;;3.60;92.32;101012.47;5035238;28;20387;-70
2021/03/21 06:08:18;;;;;;;3.80;2.78;;;;;;;3.62;92.56;101009.59;5035853;28;20041;-70
2021/03/21 06:11:05;;;;;;;3.08;1.95;;;;;;;3.66;92.57;101012.69;5036681;28;20029;-71
2021/03/21 06:13:46;;;;;;;3.38;2.03;;;;;;;3.67;92.29;101009.00;5040551;28;20037;-72
2021/03/21 06:16:23;;;;;;;3.58;2.35;;;;;;;3.71;92.45;101004.94;5034915;28;20158;-71
2021/03/21 06:19:07;;;;;;;2.60;1.85;;;;;;;3.74;92.01;101001.91;5034001;28;20950;-71
2021/03/21 06:21:46;;;;;;;3.33;2.05;;;;;;;3.79;91.61;101005.63;5034469;28;20117;-71
2021/03/21 06:24:51;;;;;;;2.25;1.95;;;;;;;3.85;91.68;101002.16;5036932;28;20021;-71
2021/03/21 06:27:35;;;;;;;2.63;1.98;;;;;;;3.88;91.94;100995.66;5058818;28;20040;-71
2021/03/21 06:30:38;;;;;;;2.95;1.92;;;;;;;3.86;91.35;101005.63;5041680;28;20026;-71
2021/03/21 06:33:13;;;;;;;2.67;1.63;;;;;;;3.85;91.63;100994.22;5038726;28;20029;-71
2021/03/21 06:36:01;;;;;;;2.72;1.55;;;;;;;3.93;91.99;100995.88;5043666;28;20494;-71
2021/03/21 06:38:42;;;;;;;3.65;1.42;;;;;;;3.94;91.28;101000.97;5044553;28;21323;-71
2021/03/21 06:41:50;;;;;;;2.83;1.55;;;;;;;3.92;92.40;100995.06;5045623;28;20374;-72
2021/03/21 06:44:34;;;;;;;1.88;1.23;;;;;;;3.90;92.05;100999.72;5042011;28;20021;-72
2021/03/21 06:46:59;;;;;;;2.63;1.60;;;;;;;3.90;92.28;101002.38;5035339;28;20108;-72
2021/03/21 06:49:52;;;;;;;2.47;1.60;;;;;;;3.86;91.91;100995.03;5047272;28;20121;-73
2021/03/21 06:52:35;;;;;;;2.03;1.10;;;;;;;3.79;92.85;100995.03;5040821;28;20059;-71
2021/03/21 06:55:09;;;;;;;2.28;1.30;;;;;;;3.79;92.97;100994.19;5046727;28;20032;-71
2021/03/21 06:57:56;;;;;;;2.63;1.77;;;;;;;3.82;93.34;100981.38;5046505;28;20040;-71
2021/03/21 07:00:30;;;;;;;3.33;1.40;;;;;;;3.89;93.02;100984.03;5044171;28;20722;-71
2021/03/21 07:03:17;;;;;;;2.43;1.60;;;;;;;3.87;92.59;100981.59;5042666;28;20036;-72
2021/03/21 07:06:20;;;;;;;1.55;1.23;;;;;;;3.85;93.24;100980.97;5044093;28;20284;-72
2021/03/21 07:09:07;;;;;;;2.00;1.10;;;;;;;3.88;92.98;100980.56;5043180;28;20078;-72
2021/03/21 07:11:36;;;;;;;3.10;1.75;;;;;;;3.86;93.02;100982.59;5043186;28;20021;-71
2021/03/21 07:14:23;;;;;;;3.03;1.88;;;;;;;3.89;93.80;100976.91;5040039;28;20158;-71
2021/03/21 07:17:07;;;;;;;4.25;1.42;;;;;;;3.96;93.04;100979.59;5033715;28;20105;-73
2021/03/21 07:20:10;;;;;;;1.50;1.20;;;;;;;4.00;92.26;100983.47;5040321;28;20048;-71
2021/03/21 07:23:03;;;;;;;2.92;1.45;;;;;;;4.02;93.05;100970.00;5044432;28;20037;-71
2021/03/21 07:25:54;;;;;;;1.95;1.33;;;;;;;4.06;93.69;100985.31;5043287;28;20086;-72
2021/03/21 07:28:40;;;;;;;3.13;1.83;;;;;;;4.05;93.40;100985.50;5042758;28;20029;-73
2021/03/21 07:31:17;;;;;;;3.00;1.63;;;;;;;4.00;93.32;100998.56;5039024;28;20044;-71
2021/03/21 07:34:08;;;;;;;2.70;1.35;;;;;;;3.98;93.06;100990.00;5037738;28;20089;-71
2021/03/21 07:36:45;;;;;;;1.67;1.08;;;;;;;4.01;93.66;100992.25;5038277;28;20183;-71
2021/03/21 07:39:21;;;;;;;2.17;1.27;;;;;;;3.98;93.87;100997.94;5037286;28;20060;-72
2021/03/21 07:42:24;;;;;;;1.60;0.95;;;;;;;4.00;93.71;100993.25;5040371;28;20060;-72
2021/03/21 07:45:47;;;;;;;2.60;0.90;;;;;;;4.00;94.06;100990.59;5040791;28;20435;-73
2021/03/21 07:48:51;;;;;;;2.05;1.10;;;;;;;4.01;94.06;100995.72;5060375;28;20047;-72
2021/03/21 07:51:52;;;;;;;1.67;0.98;;;;;;;3.99;93.40;100984.50;5025860;28;20037;-72
2021/03/21 07:55:01;;;;;;;1.48;1.00;;;;;;;3.96;93.69;100989.38;5034474;28;20143;-73
2021/03/21 07:57:51;;;;;;;1.45;0.95;;;;;;;3.94;93.54;100984.25;5057055;28;20114;-72
2021/03/21 08:00:17;;;;;;;1.45;1.20;;;;;;;3.91;94.16;100980.16;5032242;28;20028;-72
2021/03/21 08:02:42;;;;;;;3.40;0.98;;;;;;;3.99;94.54;100975.72;5047173;28;20040;-72
2021/03/21 08:05:15;;;;;;;1.15;1.00;;;;;;;3.98;94.17;100974.91;5040115;28;20352;-72
2021/03/21 08:07:45;;;;;;;1.80;0.98;;;;;;;4.00;93.89;100975.53;5037547;28;20463;-72
2021/03/21 08:10:22;;;;;;;1.75;0.95;;;;;;;4.05;94.54;100975.72;5040777;28;20035;-72
2021/03/21 08:13:14;;;;;;;1.10;0.90;;;;;;;4.01;94.77;100969.19;5041617;28;20112;-71
2021/03/21 08:15:39;;;;;;;1.05;0.80;;;;;;;4.09;94.42;100982.25;5041917;28;20403;-71
2021/03/21 08:18:15;;;;;;;2.20;0.82;;;;;;;4.07;94.34;100970.22;5037746;28;20021;-72
2021/03/21 08:20:49;;;;;;;1.73;0.95;;;;;;;4.09;94.25;100982.25;5037873;28;20412;-71
2021/03/21 08:23:27;;;;;;;2.13;0.77;;;;;;;4.15;94.52;100976.19;5036625;28;20039;-71
2021/03/21 08:25:56;;;;;;;1.80;0.90;;;;;;;4.17;94.67;100970.66;5040330;28;20051;-71
2021/03/21 08:28:24;;;;;;;0.90;0.65;;;;;;;4.19;94.23;100973.94;5041471;28;20060;-71
2021/03/21 08:30:54;;;;;;;1.23;1.00;;;;;;;4.24;94.38;100969.66;5040603;28;20514;-72
2021/03/21 08:33:29;;;;;;;1.88;1.02;;;;;;;4.27;95.07;100967.63;5040316;28;20039;-71
2021/03/21 08:36:22;;;;;;;1.48;0.85;;;;;;;4.30;94.75;100968.03;5035513;28;20124;-72
2021/03/21 08:38:59;;;;;;;1.33;0.77;;;;;;;4.27;95.19;100970.28;5037820;28;20136;-71
2021/03/21 08:41:26;;;;;;;2.45;1.13;;;;;;;4.31;95.25;100975.00;5031581;28;20044;-73
2021/03/21 08:44:05;;;;;;;2.38;1.27;;;;;;;4.30;95.52;100983.13;5035653;28;20736;-71
2021/03/21 08:46:34;;;;;;;1.73;1.33;;;;;;;4.30;95.47;100972.50;5035835;28;20573;-70
2021/03/21 08:49:18;;;;;;;1.38;1.15;;;;;;;4.30;95.87;100985.78;5040148;28;20082;-70
2021/03/21 08:51:45;;;;;;;1.63;1.20;;;;;;;4.41;95.46;100972.75;5036468;28;20025;-70
2021/03/21 08:54:34;;;;;;;2.25;1.42;;;;;;;4.44;94.80;100974.19;5040725;28;20040;-71
2021/03/21 08:57:36;;;;;;;3.95;1.83;;;;;;;4.55;94.49;100978.91;5040698;28;20028;-70
2021/03/21 09:00:30;;;;;;;3.10;2.00;;;;;;;4.63;94.33;100993.78;5040344;28;20036;-71
2021/03/21 09:02:56;;;;;;;5.43;1.73;;;;;;;4.66;94.36;100991.53;5035496;28;20587;-71
2021/03/21 09:05:23;;;;;;;5.40;2.60;;;;;;;4.75;94.32;100987.69;5037836;28;20029;-71
2021/03/21 09:07:49;;;;;;;4.40;2.17;;;;;;;4.92;93.42;100993.41;5036960;28;20515;-71
2021/03/21 09:10:32;;;;;;;7.35;2.50;;;;;;;5.01;93.06;100994.81;5035173;28;20082;-70
2021/03/21 09:13:01;;;;;;;5.15;1.85;;;;;;;5.01;92.89;101000.13;5039232;28;20491;-70
2021/03/21 09:15:36;;;;;;;7.43;2.45;;;;;;;5.11;92.55;101000.53;5031370;28;20033;-71
2021/03/21 09:18:16;;;;;;;6.07;2.35;;;;;;;5.18;92.18;101008.50;5038955;28;20078;-70
2021/03/21 09:21:08;;;;;;;4.55;2.15;;;;;;;5.24;91.98;101009.53;5041220;28;20873;-70
2021/03/21 09:23:44;;;;;;;6.07;2.65;;;;;;;5.28;92.38;101002.78;5040160;28;20067;-70
2021/03/21 09:26:13;;;;;;;9.10;3.03;;;;;;;5.14;91.59;101008.09;5032147;28;20026;-71
2021/03/21 09:28:46;;;;;;;7.80;2.92;;;;;;;5.15;91.67;101006.25;5035518;28;20033;-70
2021/03/21 09:31:13;;;;;;;8.30;3.75;;;;;;;5.23;91.76;101014.03;5032238;28;20032;-70
2021/03/21 09:33:55;;;;;;;13.77;4.07;;;;;;;5.30;92.47;101006.84;5038025;28;20495;-70
2021/03/21 09:36:27;;;;;;;8.48;3.20;;;;;;;5.38;91.60;101016.44;5038230;28;20028;-70
2021/03/21 09:38:57;;;;;;;6.72;3.17;;;;;;;5.35;89.91;101017.66;5033803;28;20043;-72
2021/03/21 09:41:23;;;;;;;7.90;3.50;;;;;;;5.32;90.78;101019.94;5037555;28;20032;-70
2021/03/21 09:43:50;;;;;;;7.63;2.80;;;;;;;5.26;89.92;101015.44;5039647;28;20025;-71
2021/03/21 09:46:35;;;;;;;11.35;2.83;;;;;;;5.30;89.60;101021.97;5032870;28;20113;-70
2021/03/21 09:49:06;;;;;;;5.85;2.42;;;;;;;5.36;88.41;101031.78;5035159;28;20107;-70
2021/03/21 09:51:41;;;;;;;8.20;3.00;;;;;;;5.42;88.93;101031.78;5037327;28;20033;-70
2021/03/21 09:54:21;;;;;;;6.60;3.53;;;;;;;5.36;88.60;101029.13;5036323;28;20702;-70
2021/03/21 09:57:01;;;;;;;5.50;3.22;;;;;;;5.51;88.16;101034.22;5053466;28;20124;-71
2021/03/21 09:59:47;;;;;;;8.80;3.65;;;;;;;5.63;88.74;101033.38;5037127;28;21249;-70
2021/03/21 10:02:34;;;;;;;7.25;3.08;;;;;;;5.67;88.12;101044.41;5036801;28;20064;-70
2021/03/21 10:05:30;;;;;;;9.60;3.30;;;;;;;5.50;86.68;101046.69;5040445;28;20048;-70
2021/03/21 10:07:59;;;;;;;7.75;3.20;;;;;;;5.58;87.18;101054.44;5039642;28;20079;-70
2021/03/21 10:10:52;;;;;;;6.22;2.58;;;;;;;5.51;88.09;101050.97;5056880;28;20110;-70
2021/03/21 10:13:33;;;;;;;7.88;2.90;;;;;;;5.61;87.62;101056.69;5035401;28;20045;-71
2021/03/21 10:16:19;;;;;;;7.95;3.30;;;;;;;5.59;87.02;101056.09;5034838;28;20029;-70
2021/03/21 10:18:49;;;;;;;7.07;4.03;;;;;;;5.65;87.45;101063.22;5042636;28;20067;-72
2021/03/21 10:21:24;;;;;;;20.92;3.63;;;;;;;5.59;86.81;101065.91;5039146;28;20745;-70
2021/03/21 10:23:56;;;;;;;5.82;2.47;;;;;;;5.64;87.61;101072.22;5040841;28;20040;-70
2021/03/21 10:26:25;;;;;;;8.90;2.92;;;;;;;5.65;85.43;101063.22;5042826;28;20495;-70
2021/03/21 10:29:09;;;;;;;11.30;4.93;;;;;;;5.64;87.00;101072.22;5042533;28;20422;-71
2021/03/21 10:31:37;;;;;;;12.45;5.22;;;;;;;5.71;86.18;101067.69;5039581;28;20039;-70
2021/03/21 10:34:02;;;;;;;6.13;3.90;;;;;;;5.80;85.32;101086.91;5038427;28;20029;-70
2021/03/21 10:36:43;;;;;;;7.82;3.55;;;;;;;5.82;85.94;101087.50;5040958;28;20025;-70
2021/03/21 10:39:31;;;;;;;11.45;4.07;;;;;;;5.84;85.61;101074.81;5034115;28;20036;-72
2021/03/21 10:42:14;;;;;;;7.30;3.38;;;;;;;5.94;84.96;101075.25;5037742;28;20044;-71
2021/03/21 10:44:39;;;;;;;9.82;3.53;;;;;;;6.09;84.91;101079.47;5033834;28;20032;-70
2021/03/21 10:47:22;;;;;;;8.60;3.20;;;;;;;6.03;84.63;101083.81;5040432;28;20032;-71
2021/03/21 10:49:50;;;;;;;13.02;4.28;;;;;;;6.09;84.71;101093.59;5037639;28;20037;-70
2021/03/21 10:52:36;;;;;;;14.43;4.53;;;;;;;6.11;85.46;101094.22;5038027;28;20086;-70
2021/03/21 10:55:10;;;;;;;;;;;;;;;5.94;84.13;101090.41;5037759;28;20155;-70
2021/03/21 10:57:42;;;;;;;13.25;3.75;;;;;;;6.17;84.69;101087.25;5046322;28;19927;-68
2021/03/21 11:00:24;;;;;;;10.35;3.65;;;;;;;5.99;84.15;101091.38;5034839;28;20107;-69
2021/03/21 11:02:59;;;;;;;8.52;4.35;;;;;;;6.09;82.91;101104.22;5039404;28;20060;-71
2021/03/21 11:05:27;;;;;;;12.38;2.92;;;;;;;5.95;83.44;101110.66;5037600;28;20065;-73
2021/03/21 11:08:01;;;;;;;8.70;4.13;;;;;;;6.00;82.84;101101.00;5037363;28;20032;-72
2021/03/21 11:10:57;;;;;;;16.52;3.47;;;;;;;6.24;82.59;101110.13;5052096;28;20037;-72
2021/03/21 11:13:30;;;;;;;14.98;3.88;;;;;;;6.13;82.72;101112.63;5050143;28;20037;-72
2021/03/21 11:15:57;;;;;;;7.68;3.78;;;;;;;6.10;83.00;101121.00;5031404;28;20106;-72
2021/03/21 11:18:33;;;;;;;8.30;4.45;;;;;;;6.27;82.25;101120.34;5035345;28;20033;-72
2021/03/21 11:21:18;;;;;;;16.17;4.40;;;;;;;6.38;81.94;101123.38;5037156;28;20044;-72
2021/03/21 11:24:06;;;;;;;12.68;3.55;;;;;;;6.33;81.87;101129.34;5033177;28;20111;-72
2021/03/21 11:26:37;;;;;;;8.48;3.45;;;;;;;6.26;80.99;101125.88;5026293;28;20048;-67
2021/03/21 11:29:06;;;;;;;11.88;3.67;;;;;;;6.28;81.41;101131.78;5035732;28;20032;-74
2021/03/21 11:31:44;;;;;;;11.60;3.45;;;;;;;6.28;80.78;101131.78;5032350;28;20028;-71
2021/03/21 11:34:29;;;;;;;11.57;4.38;;;;;;;6.27;79.98;101136.31;5034072;28;20135;-72
2021/03/21 11:37:21;;;;;;;10.20;3.35;;;;;;;6.41;79.85;101133.59;5036032;28;20090;-75
2021/03/21 11:39:56;;;;;;;6.03;3.28;;;;;;;6.80;78.60;101125.41;5036569;28;20111;-72
2021/03/21 11:42:30;;;;;;;13.85;3.40;;;;;;;7.33;77.55;101121.56;5035387;28;20152;-73
2021/03/21 11:45:20;;;;;;;10.40;3.15;;;;;;;7.37;75.00;101136.13;5033022;28;20045;-71
2021/03/21 11:47:53;;;;;;;8.07;2.60;;;;;;;7.31;75.25;101132.47;5025924;28;20704;-73
2021/03/21 11:50:32;;;;;;;11.48;3.13;;;;;;;7.26;75.19;101130.44;5035573;28;20819;-73
2021/03/21 11:53:03;;;;;;;7.32;2.97;;;;;;;7.33;74.67;101135.72;5033112;28;20033;-71
2021/03/21 11:55:36;;;;;;;6.68;2.40;;;;;;;7.22;73.08;101139.91;5031920;28;20033;-72
2021/03/21 11:58:15;;;;;;;9.77;2.55;;;;;;;8.40;72.14;101142.50;5035509;28;20087;-71
2021/03/21 12:00:46;;;;;;;7.65;2.50;;;;;;;10.79;64.12;101139.31;5033825;28;20073;-70
2021/03/21 12:03:19;;;;;;;9.00;3.95;;;;;;;12.75;56.95;101136.31;5034637;28;20028;-69
2021/03/21 12:06:01;;;;;;;8.32;2.47;;;;;;;13.74;54.49;101135.03;5037203;28;20058;-71
2021/03/21 12:08:41;;;;;;;11.18;2.00;;;;;;;11.68;54.82;101152.91;5036970;28;20028;-71
2021/03/21 12:11:25;;;;;;;9.98;1.42;;;;;;;10.87;55.99;101152.31;5034832;28;20986;-71
2021/03/21 12:13:53;;;;;;;3.90;1.40;;;;;;;10.49;58.75;101156.44;5033230;28;20134;-71